METAR Data
IDs: Format: Raw Decoded Include TAF

Data at: 1622 UTC 26 Sep 2021

METAR for:KFPK (Charotte/Beach Fld, MI, US)
Text:KFPK 261615Z AUTO 21007KT 10SM CLR 21/09 A2995 RMK AO2 T02050090
Temperature: 20.5°C ( 69°F)
Dewpoint: 9.0°C ( 48°F) [RH = 48%]
Pressure (altimeter):29.95 inches Hg (1014.3 mb)
Winds:from the SSW (210 degrees) at 8 MPH (7 knots; 3.6 m/s)
Visibility:10 or more sm (16+ km)
Ceiling:at least 12,000 feet AGL
Clouds:sky clear below 12,000 feet AGL
QC Flag:automated observation with no human augmentation

TAF for:KFPK (Charotte/Beach Fld, MI, US)
Text:No data found

METAR for:KLAN (Lansing/Capital City, MI, US)
Text:KLAN 261553Z 22007KT 10SM CLR 20/09 A2996 RMK AO2 SLP145 T02000094
Temperature: 20.0°C ( 68°F)
Dewpoint: 9.4°C ( 49°F) [RH = 50%]
Pressure (altimeter):29.96 inches Hg (1014.6 mb) [Sea level pressure: 1014.5 mb]
Winds:from the SW (220 degrees) at 8 MPH (7 knots; 3.6 m/s)
Visibility:10 or more sm (16+ km)
Ceiling:at least 12,000 feet AGL
Clouds:sky clear below 12,000 feet AGL

TAF for:KLAN (Lansing/Capital City, MI, US) issued at 1131 UTC 26 Sep 2021
Text:KLAN 261131Z 2612/2712 22006KT P6SM BKN120
Forecast period:1200 to 1500 UTC 26 September 2021
Forecast type:FROM: standard forecast or significant change
Winds:from the SW (220 degrees) at 7 MPH (6 knots; 3.1 m/s)
Visibility:6 or more sm (10+ km)
Ceiling:12000 feet AGL
Clouds: broken clouds at 12000 feet AGL
Text:FM261500 24014G24KT P6SM BKN120
Forecast period:1500 UTC 26 September 2021 to 0000 UTC 27 September 2021
Forecast type:FROM: standard forecast or significant change
Winds:from the WSW (240 degrees) at 16 MPH (14 knots; 7.2 m/s) gusting to 28 MPH (24 knots; 12.3 m/s)
Visibility:6 or more sm (10+ km)
Ceiling:12000 feet AGL
Clouds: broken clouds at 12000 feet AGL
Text:FM270000 20010KT P6SM BKN120 WS020/24045KT
Forecast period:0000 to 1200 UTC 27 September 2021
Forecast type:FROM: standard forecast or significant change
Winds:from the SSW (200 degrees) at 12 MPH (10 knots; 5.1 m/s)
Visibility:6 or more sm (10+ km)
Ceiling:12000 feet AGL
Clouds: broken clouds at 12000 feet AGL
Wind Shear:240 degrees at 45 knots at 2000 feet AGL